sensor_id;sensor_type;location;lat;lon;timestamp;P1;durP1;ratioP1;P2;durP2;ratioP2
69334;SDS011;56477;52.742;15.242;2023-06-10T00:01:48;12.13;;;6.53;;
69334;SDS011;56477;52.742;15.242;2023-06-10T00:04:14;10.15;;;6.53;;
69334;SDS011;56477;52.742;15.242;2023-06-10T00:06:45;11.98;;;7.07;;
69334;SDS011;56477;52.742;15.242;2023-06-10T00:09:13;12.23;;;7.10;;
69334;SDS011;56477;52.742;15.242;2023-06-10T00:11:40;10.77;;;6.93;;
69334;SDS011;56477;52.742;15.242;2023-06-10T00:14:06;9.20;;;6.70;;
69334;SDS011;56477;52.742;15.242;2023-06-10T00:16:33;8.98;;;6.15;;
69334;SDS011;56477;52.742;15.242;2023-06-10T00:18:59;8.38;;;6.00;;
69334;SDS011;56477;52.742;15.242;2023-06-10T00:21:27;14.23;;;6.53;;
69334;SDS011;56477;52.742;15.242;2023-06-10T00:23:53;10.80;;;6.50;;
69334;SDS011;56477;52.742;15.242;2023-06-10T00:26:23;9.35;;;6.60;;
69334;SDS011;56477;52.742;15.242;2023-06-10T00:28:49;8.77;;;6.47;;
69334;SDS011;56477;52.742;15.242;2023-06-10T00:31:16;10.55;;;6.53;;
69334;SDS011;56477;52.742;15.242;2023-06-10T00:33:42;12.10;;;7.27;;
69334;SDS011;56477;52.742;15.242;2023-06-10T00:36:08;11.60;;;7.88;;
69334;SDS011;56477;52.742;15.242;2023-06-10T00:38:35;12.23;;;7.82;;
69334;SDS011;56477;52.742;15.242;2023-06-10T00:41:01;11.57;;;7.68;;
69334;SDS011;56477;52.742;15.242;2023-06-10T00:43:27;12.43;;;6.60;;
69334;SDS011;56477;52.742;15.242;2023-06-10T00:45:53;11.95;;;7.03;;
69334;SDS011;56477;52.742;15.242;2023-06-10T00:48:19;10.20;;;6.88;;
69334;SDS011;56477;52.742;15.242;2023-06-10T00:50:46;13.82;;;7.47;;
69334;SDS011;56477;52.742;15.242;2023-06-10T00:53:12;12.07;;;6.72;;
69334;SDS011;56477;52.742;15.242;2023-06-10T00:55:40;12.13;;;7.43;;
69334;SDS011;56477;52.742;15.242;2023-06-10T00:58:06;10.20;;;7.20;;
69334;SDS011;56477;52.742;15.242;2023-06-10T01:00:33;14.18;;;8.68;;
69334;SDS011;56477;52.742;15.242;2023-06-10T01:02:59;13.98;;;7.88;;
69334;SDS011;56477;52.742;15.242;2023-06-10T01:05:25;11.50;;;7.43;;
69334;SDS011;56477;52.742;15.242;2023-06-10T01:10:33;12.55;;;7.68;;
69334;SDS011;56477;52.742;15.242;2023-06-10T01:13:05;12.75;;;7.55;;
69334;SDS011;56477;52.742;15.242;2023-06-10T01:15:34;11.18;;;7.63;;
69334;SDS011;56477;52.742;15.242;2023-06-10T01:18:01;18.07;;;8.53;;
69334;SDS011;56477;52.742;15.242;2023-06-10T01:20:29;15.40;;;9.32;;
69334;SDS011;56477;52.742;15.242;2023-06-10T01:23:00;13.35;;;8.07;;
69334;SDS011;56477;52.742;15.242;2023-06-10T01:25:28;12.45;;;8.48;;
69334;SDS011;56477;52.742;15.242;2023-06-10T01:33:59;14.45;;;8.10;;
69334;SDS011;56477;52.742;15.242;2023-06-10T01:36:27;14.35;;;8.55;;
69334;SDS011;56477;52.742;15.242;2023-06-10T01:38:54;13.98;;;8.20;;
69334;SDS011;56477;52.742;15.242;2023-06-10T01:41:22;14.43;;;8.10;;
69334;SDS011;56477;52.742;15.242;2023-06-10T01:43:48;14.70;;;8.80;;
69334;SDS011;56477;52.742;15.242;2023-06-10T01:46:15;14.40;;;8.75;;
69334;SDS011;56477;52.742;15.242;2023-06-10T01:48:45;13.32;;;8.98;;
69334;SDS011;56477;52.742;15.242;2023-06-10T01:51:11;13.75;;;8.52;;
69334;SDS011;56477;52.742;15.242;2023-06-10T01:53:37;12.30;;;9.03;;
69334;SDS011;56477;52.742;15.242;2023-06-10T01:56:03;14.27;;;9.40;;
69334;SDS011;56477;52.742;15.242;2023-06-10T01:58:29;12.30;;;9.40;;
69334;SDS011;56477;52.742;15.242;2023-06-10T02:00:55;13.02;;;9.10;;
69334;SDS011;56477;52.742;15.242;2023-06-10T02:03:21;14.63;;;9.80;;
69334;SDS011;56477;52.742;15.242;2023-06-10T02:05:47;16.25;;;9.98;;
69334;SDS011;56477;52.742;15.242;2023-06-10T02:08:13;14.05;;;9.35;;
69334;SDS011;56477;52.742;15.242;2023-06-10T02:10:40;14.93;;;9.10;;
69334;SDS011;56477;52.742;15.242;2023-06-10T02:13:06;12.57;;;8.80;;
69334;SDS011;56477;52.742;15.242;2023-06-10T02:15:32;14.17;;;9.67;;
69334;SDS011;56477;52.742;15.242;2023-06-10T02:17:58;15.00;;;9.48;;
69334;SDS011;56477;52.742;15.242;2023-06-10T02:20:25;13.88;;;10.00;;
69334;SDS011;56477;52.742;15.242;2023-06-10T02:22:51;12.43;;;8.30;;
69334;SDS011;56477;52.742;15.242;2023-06-10T02:25:17;14.70;;;9.52;;
69334;SDS011;56477;52.742;15.242;2023-06-10T02:27:43;16.48;;;9.38;;
69334;SDS011;56477;52.742;15.242;2023-06-10T02:30:09;11.57;;;9.25;;
69334;SDS011;56477;52.742;15.242;2023-06-10T02:32:35;14.00;;;9.18;;
69334;SDS011;56477;52.742;15.242;2023-06-10T02:35:02;12.73;;;8.80;;
69334;SDS011;56477;52.742;15.242;2023-06-10T02:37:28;13.65;;;9.10;;
69334;SDS011;56477;52.742;15.242;2023-06-10T02:39:54;14.10;;;8.82;;
69334;SDS011;56477;52.742;15.242;2023-06-10T02:42:20;15.90;;;9.02;;
69334;SDS011;56477;52.742;15.242;2023-06-10T02:44:46;11.53;;;8.23;;
69334;SDS011;56477;52.742;15.242;2023-06-10T02:47:12;14.73;;;8.68;;
69334;SDS011;56477;52.742;15.242;2023-06-10T02:49:38;12.10;;;8.13;;
69334;SDS011;56477;52.742;15.242;2023-06-10T02:52:04;12.98;;;8.48;;
69334;SDS011;56477;52.742;15.242;2023-06-10T02:54:30;13.73;;;8.43;;
69334;SDS011;56477;52.742;15.242;2023-06-10T02:56:56;14.77;;;8.05;;
69334;SDS011;56477;52.742;15.242;2023-06-10T02:59:22;13.40;;;8.18;;
69334;SDS011;56477;52.742;15.242;2023-06-10T03:01:48;16.70;;;8.83;;
69334;SDS011;56477;52.742;15.242;2023-06-10T03:04:14;13.25;;;8.70;;
69334;SDS011;56477;52.742;15.242;2023-06-10T03:06:40;13.27;;;8.43;;
69334;SDS011;56477;52.742;15.242;2023-06-10T03:09:06;13.77;;;8.35;;
69334;SDS011;56477;52.742;15.242;2023-06-10T03:11:35;13.67;;;8.37;;
69334;SDS011;56477;52.742;15.242;2023-06-10T03:14:02;12.40;;;8.10;;
69334;SDS011;56477;52.742;15.242;2023-06-10T03:16:27;12.77;;;7.85;;
69334;SDS011;56477;52.742;15.242;2023-06-10T03:18:55;11.93;;;7.88;;
69334;SDS011;56477;52.742;15.242;2023-06-10T03:21:21;13.50;;;8.00;;
69334;SDS011;56477;52.742;15.242;2023-06-10T03:23:48;11.43;;;7.43;;
69334;SDS011;56477;52.742;15.242;2023-06-10T03:26:14;11.18;;;7.70;;
69334;SDS011;56477;52.742;15.242;2023-06-10T03:28:41;11.45;;;7.55;;
69334;SDS011;56477;52.742;15.242;2023-06-10T03:31:07;11.98;;;7.47;;
69334;SDS011;56477;52.742;15.242;2023-06-10T03:33:33;13.77;;;7.27;;
69334;SDS011;56477;52.742;15.242;2023-06-10T03:35:59;12.32;;;7.70;;
69334;SDS011;56477;52.742;15.242;2023-06-10T03:38:25;10.43;;;6.82;;
69334;SDS011;56477;52.742;15.242;2023-06-10T03:40:51;13.48;;;7.22;;
69334;SDS011;56477;52.742;15.242;2023-06-10T03:43:17;10.93;;;6.83;;
69334;SDS011;56477;52.742;15.242;2023-06-10T03:45:43;10.32;;;6.50;;
69334;SDS011;56477;52.742;15.242;2023-06-10T03:48:09;12.52;;;7.68;;
69334;SDS011;56477;52.742;15.242;2023-06-10T03:50:36;14.48;;;7.07;;
69334;SDS011;56477;52.742;15.242;2023-06-10T03:53:02;14.57;;;7.07;;
69334;SDS011;56477;52.742;15.242;2023-06-10T03:55:28;11.07;;;7.00;;
69334;SDS011;56477;52.742;15.242;2023-06-10T03:57:54;11.20;;;6.35;;
69334;SDS011;56477;52.742;15.242;2023-06-10T04:00:20;17.17;;;7.25;;
69334;SDS011;56477;52.742;15.242;2023-06-10T04:02:47;11.63;;;6.57;;
69334;SDS011;56477;52.742;15.242;2023-06-10T04:05:18;13.07;;;6.53;;
69334;SDS011;56477;52.742;15.242;2023-06-10T04:07:48;10.48;;;6.22;;
69334;SDS011;56477;52.742;15.242;2023-06-10T04:10:14;10.40;;;6.30;;
69334;SDS011;56477;52.742;15.242;2023-06-10T04:12:41;9.50;;;6.20;;
69334;SDS011;56477;52.742;15.242;2023-06-10T04:15:07;9.53;;;6.00;;
69334;SDS011;56477;52.742;15.242;2023-06-10T04:17:34;11.88;;;6.38;;
69334;SDS011;56477;52.742;15.242;2023-06-10T04:20:00;12.20;;;6.93;;
69334;SDS011;56477;52.742;15.242;2023-06-10T04:22:26;11.75;;;6.40;;
69334;SDS011;56477;52.742;15.242;2023-06-10T04:24:52;12.43;;;5.80;;
69334;SDS011;56477;52.742;15.242;2023-06-10T04:27:18;12.30;;;6.03;;
69334;SDS011;56477;52.742;15.242;2023-06-10T04:29:44;8.55;;;6.07;;
69334;SDS011;56477;52.742;15.242;2023-06-10T04:32:10;12.73;;;6.35;;
69334;SDS011;56477;52.742;15.242;2023-06-10T04:34:36;15.60;;;6.43;;
69334;SDS011;56477;52.742;15.242;2023-06-10T04:37:06;14.52;;;6.25;;
69334;SDS011;56477;52.742;15.242;2023-06-10T04:39:32;10.13;;;6.22;;
69334;SDS011;56477;52.742;15.242;2023-06-10T04:41:58;9.93;;;6.03;;
69334;SDS011;56477;52.742;15.242;2023-06-10T04:44:24;12.02;;;6.38;;
69334;SDS011;56477;52.742;15.242;2023-06-10T04:46:50;13.30;;;6.17;;
69334;SDS011;56477;52.742;15.242;2023-06-10T04:49:16;13.18;;;6.30;;
69334;SDS011;56477;52.742;15.242;2023-06-10T04:51:42;12.55;;;6.35;;
69334;SDS011;56477;52.742;15.242;2023-06-10T04:54:08;12.33;;;6.20;;
69334;SDS011;56477;52.742;15.242;2023-06-10T04:56:34;11.52;;;5.70;;
69334;SDS011;56477;52.742;15.242;2023-06-10T04:59:00;10.38;;;5.82;;
69334;SDS011;56477;52.742;15.242;2023-06-10T05:01:26;12.05;;;6.68;;
69334;SDS011;56477;52.742;15.242;2023-06-10T05:03:53;9.48;;;5.78;;
69334;SDS011;56477;52.742;15.242;2023-06-10T05:06:19;10.37;;;6.20;;
69334;SDS011;56477;52.742;15.242;2023-06-10T05:08:45;9.95;;;5.97;;
69334;SDS011;56477;52.742;15.242;2023-06-10T05:11:11;12.90;;;5.85;;
69334;SDS011;56477;52.742;15.242;2023-06-10T05:13:37;9.98;;;5.88;;
69334;SDS011;56477;52.742;15.242;2023-06-10T05:16:03;11.23;;;6.17;;
69334;SDS011;56477;52.742;15.242;2023-06-10T05:18:29;9.25;;;5.95;;
69334;SDS011;56477;52.742;15.242;2023-06-10T05:20:55;10.40;;;6.38;;
69334;SDS011;56477;52.742;15.242;2023-06-10T05:23:21;10.18;;;5.75;;
69334;SDS011;56477;52.742;15.242;2023-06-10T05:25:47;10.33;;;6.20;;
69334;SDS011;56477;52.742;15.242;2023-06-10T05:28:13;13.93;;;6.35;;
69334;SDS011;56477;52.742;15.242;2023-06-10T05:30:39;9.38;;;5.60;;
69334;SDS011;56477;52.742;15.242;2023-06-10T05:33:05;11.40;;;6.28;;
69334;SDS011;56477;52.742;15.242;2023-06-10T05:35:31;11.17;;;6.13;;
69334;SDS011;56477;52.742;15.242;2023-06-10T05:37:57;14.02;;;6.18;;
69334;SDS011;56477;52.742;15.242;2023-06-10T05:40:23;10.90;;;6.00;;
69334;SDS011;56477;52.742;15.242;2023-06-10T05:42:49;10.03;;;6.27;;
69334;SDS011;56477;52.742;15.242;2023-06-10T05:45:15;11.65;;;6.32;;
69334;SDS011;56477;52.742;15.242;2023-06-10T05:47:41;10.57;;;6.40;;
69334;SDS011;56477;52.742;15.242;2023-06-10T05:50:07;9.15;;;6.13;;
69334;SDS011;56477;52.742;15.242;2023-06-10T05:52:35;9.55;;;6.05;;
69334;SDS011;56477;52.742;15.242;2023-06-10T05:55:02;10.70;;;6.00;;
69334;SDS011;56477;52.742;15.242;2023-06-10T05:57:28;9.88;;;6.20;;
69334;SDS011;56477;52.742;15.242;2023-06-10T05:59:55;11.05;;;6.28;;
69334;SDS011;56477;52.742;15.242;2023-06-10T06:02:21;9.57;;;6.40;;
69334;SDS011;56477;52.742;15.242;2023-06-10T06:04:47;9.40;;;5.53;;
69334;SDS011;56477;52.742;15.242;2023-06-10T06:07:12;8.15;;;5.45;;
69334;SDS011;56477;52.742;15.242;2023-06-10T06:09:39;7.68;;;5.55;;
69334;SDS011;56477;52.742;15.242;2023-06-10T06:12:05;14.52;;;6.53;;
69334;SDS011;56477;52.742;15.242;2023-06-10T06:14:36;10.77;;;5.80;;
69334;SDS011;56477;52.742;15.242;2023-06-10T06:17:03;9.85;;;5.90;;
69334;SDS011;56477;52.742;15.242;2023-06-10T06:19:29;10.10;;;5.68;;
69334;SDS011;56477;52.742;15.242;2023-06-10T06:21:55;11.82;;;5.55;;
69334;SDS011;56477;52.742;15.242;2023-06-10T06:24:21;10.37;;;5.20;;
69334;SDS011;56477;52.742;15.242;2023-06-10T06:26:47;6.23;;;4.97;;
69334;SDS011;56477;52.742;15.242;2023-06-10T06:29:13;9.98;;;5.20;;
69334;SDS011;56477;52.742;15.242;2023-06-10T06:31:39;7.90;;;5.20;;
69334;SDS011;56477;52.742;15.242;2023-06-10T06:34:05;8.77;;;4.60;;
69334;SDS011;56477;52.742;15.242;2023-06-10T06:36:31;7.67;;;5.03;;
69334;SDS011;56477;52.742;15.242;2023-06-10T06:38:57;9.05;;;5.47;;
69334;SDS011;56477;52.742;15.242;2023-06-10T06:41:25;8.68;;;5.45;;
69334;SDS011;56477;52.742;15.242;2023-06-10T06:43:53;7.63;;;5.47;;
69334;SDS011;56477;52.742;15.242;2023-06-10T06:46:20;8.70;;;5.60;;
69334;SDS011;56477;52.742;15.242;2023-06-10T06:48:47;9.35;;;6.40;;
69334;SDS011;56477;52.742;15.242;2023-06-10T06:51:12;9.52;;;6.20;;
69334;SDS011;56477;52.742;15.242;2023-06-10T06:53:39;8.07;;;6.03;;
69334;SDS011;56477;52.742;15.242;2023-06-10T06:56:10;9.20;;;6.00;;
69334;SDS011;56477;52.742;15.242;2023-06-10T06:58:36;7.82;;;5.65;;
69334;SDS011;56477;52.742;15.242;2023-06-10T07:01:02;8.38;;;5.82;;
69334;SDS011;56477;52.742;15.242;2023-06-10T07:03:31;8.48;;;5.75;;
69334;SDS011;56477;52.742;15.242;2023-06-10T07:05:57;7.73;;;5.63;;
69334;SDS011;56477;52.742;15.242;2023-06-10T07:08:23;7.67;;;5.60;;
69334;SDS011;56477;52.742;15.242;2023-06-10T07:10:49;8.43;;;5.93;;
69334;SDS011;56477;52.742;15.242;2023-06-10T07:13:15;10.00;;;5.88;;
69334;SDS011;56477;52.742;15.242;2023-06-10T07:15:41;9.27;;;6.40;;
69334;SDS011;56477;52.742;15.242;2023-06-10T07:18:07;10.02;;;6.05;;
69334;SDS011;56477;52.742;15.242;2023-06-10T07:20:33;8.90;;;6.07;;
69334;SDS011;56477;52.742;15.242;2023-06-10T07:22:59;8.38;;;5.95;;
69334;SDS011;56477;52.742;15.242;2023-06-10T07:25:25;10.83;;;5.93;;
69334;SDS011;56477;52.742;15.242;2023-06-10T07:27:51;8.23;;;5.95;;
69334;SDS011;56477;52.742;15.242;2023-06-10T07:30:16;8.73;;;6.15;;
69334;SDS011;56477;52.742;15.242;2023-06-10T07:32:43;8.87;;;6.00;;
69334;SDS011;56477;52.742;15.242;2023-06-10T07:35:11;9.93;;;5.97;;
69334;SDS011;56477;52.742;15.242;2023-06-10T07:37:38;9.30;;;6.20;;
69334;SDS011;56477;52.742;15.242;2023-06-10T07:40:04;9.65;;;6.18;;
69334;SDS011;56477;52.742;15.242;2023-06-10T07:42:34;8.38;;;5.65;;
69334;SDS011;56477;52.742;15.242;2023-06-10T07:45:01;9.93;;;5.90;;
69334;SDS011;56477;52.742;15.242;2023-06-10T07:47:29;8.18;;;5.82;;
69334;SDS011;56477;52.742;15.242;2023-06-10T07:49:55;6.70;;;5.70;;
69334;SDS011;56477;52.742;15.242;2023-06-10T07:52:21;8.60;;;5.82;;
69334;SDS011;56477;52.742;15.242;2023-06-10T07:54:47;7.43;;;5.50;;
69334;SDS011;56477;52.742;15.242;2023-06-10T07:57:15;8.38;;;5.30;;
69334;SDS011;56477;52.742;15.242;2023-06-10T07:59:40;8.73;;;5.72;;
69334;SDS011;56477;52.742;15.242;2023-06-10T08:02:07;9.90;;;6.07;;
69334;SDS011;56477;52.742;15.242;2023-06-10T08:04:32;7.60;;;5.50;;
69334;SDS011;56477;52.742;15.242;2023-06-10T08:07:00;6.82;;;5.97;;
69334;SDS011;56477;52.742;15.242;2023-06-10T08:09:27;11.63;;;6.03;;
69334;SDS011;56477;52.742;15.242;2023-06-10T08:11:54;12.10;;;6.17;;
69334;SDS011;56477;52.742;15.242;2023-06-10T08:14:21;6.88;;;5.97;;
69334;SDS011;56477;52.742;15.242;2023-06-10T08:16:47;7.32;;;5.88;;
69334;SDS011;56477;52.742;15.242;2023-06-10T08:19:13;9.63;;;6.00;;
69334;SDS011;56477;52.742;15.242;2023-06-10T08:21:39;6.75;;;5.93;;
69334;SDS011;56477;52.742;15.242;2023-06-10T08:24:06;10.13;;;6.07;;
69334;SDS011;56477;52.742;15.242;2023-06-10T08:26:32;9.32;;;6.53;;
69334;SDS011;56477;52.742;15.242;2023-06-10T08:28:58;8.48;;;6.35;;
69334;SDS011;56477;52.742;15.242;2023-06-10T08:31:24;9.77;;;6.32;;
69334;SDS011;56477;52.742;15.242;2023-06-10T08:33:50;9.50;;;6.63;;
69334;SDS011;56477;52.742;15.242;2023-06-10T08:36:16;8.05;;;6.45;;
69334;SDS011;56477;52.742;15.242;2023-06-10T08:38:42;9.18;;;6.85;;
69334;SDS011;56477;52.742;15.242;2023-06-10T08:41:08;7.45;;;5.20;;
69334;SDS011;56477;52.742;15.242;2023-06-10T08:43:39;8.53;;;5.70;;
69334;SDS011;56477;52.742;15.242;2023-06-10T08:46:10;7.17;;;5.50;;
69334;SDS011;56477;52.742;15.242;2023-06-10T08:48:38;8.45;;;5.50;;
69334;SDS011;56477;52.742;15.242;2023-06-10T08:51:10;10.23;;;5.95;;
69334;SDS011;56477;52.742;15.242;2023-06-10T08:53:37;7.28;;;5.55;;
69334;SDS011;56477;52.742;15.242;2023-06-10T08:56:16;8.77;;;5.90;;
69334;SDS011;56477;52.742;15.242;2023-06-10T08:58:43;8.23;;;6.25;;
69334;SDS011;56477;52.742;15.242;2023-06-10T09:01:09;8.83;;;6.27;;
69334;SDS011;56477;52.742;15.242;2023-06-10T09:03:37;10.98;;;6.88;;
69334;SDS011;56477;52.742;15.242;2023-06-10T09:06:04;10.20;;;6.05;;
69334;SDS011;56477;52.742;15.242;2023-06-10T09:08:30;7.50;;;6.10;;
69334;SDS011;56477;52.742;15.242;2023-06-10T09:10:58;8.93;;;6.10;;
69334;SDS011;56477;52.742;15.242;2023-06-10T09:13:24;7.35;;;6.28;;
69334;SDS011;56477;52.742;15.242;2023-06-10T09:15:50;8.93;;;5.93;;
69334;SDS011;56477;52.742;15.242;2023-06-10T09:18:16;6.93;;;5.20;;
69334;SDS011;56477;52.742;15.242;2023-06-10T09:20:43;8.55;;;6.15;;
69334;SDS011;56477;52.742;15.242;2023-06-10T09:23:09;7.15;;;5.65;;
69334;SDS011;56477;52.742;15.242;2023-06-10T09:25:36;7.53;;;5.40;;
69334;SDS011;56477;52.742;15.242;2023-06-10T09:28:03;17.52;;;5.65;;
69334;SDS011;56477;52.742;15.242;2023-06-10T09:30:31;10.00;;;4.63;;
69334;SDS011;56477;52.742;15.242;2023-06-10T09:33:01;10.10;;;4.35;;
69334;SDS011;56477;52.742;15.242;2023-06-10T09:35:29;10.45;;;4.80;;
69334;SDS011;56477;52.742;15.242;2023-06-10T09:37:59;8.25;;;5.10;;
69334;SDS011;56477;52.742;15.242;2023-06-10T09:40:26;6.85;;;4.60;;
69334;SDS011;56477;52.742;15.242;2023-06-10T09:42:59;9.52;;;5.40;;
69334;SDS011;56477;52.742;15.242;2023-06-10T09:45:29;13.20;;;5.00;;
69334;SDS011;56477;52.742;15.242;2023-06-10T09:47:59;9.93;;;5.57;;
69334;SDS011;56477;52.742;15.242;2023-06-10T09:50:26;9.60;;;5.07;;
69334;SDS011;56477;52.742;15.242;2023-06-10T09:52:52;11.90;;;5.03;;
69334;SDS011;56477;52.742;15.242;2023-06-10T09:55:19;9.52;;;5.88;;
69334;SDS011;56477;52.742;15.242;2023-06-10T09:57:44;6.07;;;4.82;;
69334;SDS011;56477;52.742;15.242;2023-06-10T10:00:15;9.15;;;4.97;;
69334;SDS011;56477;52.742;15.242;2023-06-10T10:02:45;7.00;;;4.70;;
69334;SDS011;56477;52.742;15.242;2023-06-10T10:05:19;7.77;;;5.10;;
69334;SDS011;56477;52.742;15.242;2023-06-10T10:07:47;9.20;;;5.05;;
69334;SDS011;56477;52.742;15.242;2023-06-10T10:10:14;7.60;;;4.63;;
69334;SDS011;56477;52.742;15.242;2023-06-10T10:12:41;8.00;;;5.25;;
69334;SDS011;56477;52.742;15.242;2023-06-10T10:15:09;9.95;;;5.13;;
69334;SDS011;56477;52.742;15.242;2023-06-10T10:17:40;8.05;;;4.82;;
69334;SDS011;56477;52.742;15.242;2023-06-10T10:20:11;6.53;;;4.80;;
69334;SDS011;56477;52.742;15.242;2023-06-10T10:22:41;9.20;;;4.33;;
69334;SDS011;56477;52.742;15.242;2023-06-10T10:25:11;13.90;;;6.03;;
69334;SDS011;56477;52.742;15.242;2023-06-10T10:27:41;8.93;;;4.53;;
69334;SDS011;56477;52.742;15.242;2023-06-10T10:30:11;8.48;;;5.20;;
69334;SDS011;56477;52.742;15.242;2023-06-10T10:35:27;9.57;;;4.75;;
69334;SDS011;56477;52.742;15.242;2023-06-10T10:37:54;6.10;;;4.63;;
69334;SDS011;56477;52.742;15.242;2023-06-10T10:40:21;7.28;;;4.72;;
69334;SDS011;56477;52.742;15.242;2023-06-10T10:42:51;6.88;;;4.95;;
69334;SDS011;56477;52.742;15.242;2023-06-10T10:45:18;11.07;;;5.07;;
69334;SDS011;56477;52.742;15.242;2023-06-10T10:47:46;8.07;;;4.77;;
69334;SDS011;56477;52.742;15.242;2023-06-10T10:50:18;7.17;;;4.17;;
69334;SDS011;56477;52.742;15.242;2023-06-10T10:55:24;7.80;;;4.43;;
69334;SDS011;56477;52.742;15.242;2023-06-10T10:57:54;8.88;;;4.13;;
69334;SDS011;56477;52.742;15.242;2023-06-10T11:00:28;7.40;;;4.13;;
69334;SDS011;56477;52.742;15.242;2023-06-10T11:03:05;6.68;;;3.72;;
69334;SDS011;56477;52.742;15.242;2023-06-10T11:05:42;7.25;;;3.65;;
69334;SDS011;56477;52.742;15.242;2023-06-10T11:09:00;8.40;;;3.85;;
69334;SDS011;56477;52.742;15.242;2023-06-10T11:11:02;8.68;;;3.75;;
69334;SDS011;56477;52.742;15.242;2023-06-10T11:14:04;11.23;;;4.10;;
69334;SDS011;56477;52.742;15.242;2023-06-10T11:16:40;9.07;;;3.60;;
69334;SDS011;56477;52.742;15.242;2023-06-10T11:19:08;7.30;;;3.50;;
69334;SDS011;56477;52.742;15.242;2023-06-10T11:22:17;6.50;;;3.88;;
69334;SDS011;56477;52.742;15.242;2023-06-10T11:24:25;8.60;;;4.30;;
69334;SDS011;56477;52.742;15.242;2023-06-10T11:26:51;5.40;;;3.95;;
69334;SDS011;56477;52.742;15.242;2023-06-10T11:29:17;7.30;;;4.35;;
69334;SDS011;56477;52.742;15.242;2023-06-10T11:31:48;6.80;;;3.95;;
69334;SDS011;56477;52.742;15.242;2023-06-10T11:34:15;6.15;;;3.80;;
69334;SDS011;56477;52.742;15.242;2023-06-10T11:36:49;6.60;;;3.80;;
69334;SDS011;56477;52.742;15.242;2023-06-10T11:39:14;6.57;;;4.30;;
69334;SDS011;56477;52.742;15.242;2023-06-10T11:41:41;9.55;;;4.90;;
69334;SDS011;56477;52.742;15.242;2023-06-10T11:44:08;7.32;;;4.63;;
69334;SDS011;56477;52.742;15.242;2023-06-10T11:46:35;7.32;;;4.28;;
69334;SDS011;56477;52.742;15.242;2023-06-10T11:49:01;6.33;;;3.80;;
69334;SDS011;56477;52.742;15.242;2023-06-10T11:51:29;12.87;;;4.17;;
69334;SDS011;56477;52.742;15.242;2023-06-10T11:53:57;5.15;;;3.80;;
69334;SDS011;56477;52.742;15.242;2023-06-10T11:56:27;6.45;;;4.00;;
69334;SDS011;56477;52.742;15.242;2023-06-10T11:59:04;7.97;;;4.30;;
69334;SDS011;56477;52.742;15.242;2023-06-10T12:01:40;8.80;;;3.88;;
69334;SDS011;56477;52.742;15.242;2023-06-10T12:04:12;5.97;;;3.80;;
69334;SDS011;56477;52.742;15.242;2023-06-10T12:09:06;6.97;;;4.60;;
69334;SDS011;56477;52.742;15.242;2023-06-10T12:11:42;8.50;;;4.00;;
69334;SDS011;56477;52.742;15.242;2023-06-10T12:14:09;10.47;;;3.80;;
69334;SDS011;56477;52.742;15.242;2023-06-10T12:16:35;14.40;;;4.10;;
69334;SDS011;56477;52.742;15.242;2023-06-10T12:19:02;7.38;;;3.95;;
69334;SDS011;56477;52.742;15.242;2023-06-10T12:21:29;7.30;;;3.95;;
69334;SDS011;56477;52.742;15.242;2023-06-10T12:23:59;6.65;;;3.72;;
69334;SDS011;56477;52.742;15.242;2023-06-10T12:26:33;8.27;;;4.38;;
69334;SDS011;56477;52.742;15.242;2023-06-10T12:31:56;8.50;;;3.90;;
69334;SDS011;56477;52.742;15.242;2023-06-10T12:34:36;7.30;;;4.17;;
69334;SDS011;56477;52.742;15.242;2023-06-10T12:37:04;5.78;;;3.60;;
69334;SDS011;56477;52.742;15.242;2023-06-10T12:39:40;6.50;;;3.90;;
69334;SDS011;56477;52.742;15.242;2023-06-10T12:42:10;6.53;;;3.78;;
69334;SDS011;56477;52.742;15.242;2023-06-10T12:44:41;9.00;;;3.58;;
69334;SDS011;56477;52.742;15.242;2023-06-10T12:47:07;6.63;;;3.80;;
69334;SDS011;56477;52.742;15.242;2023-06-10T12:49:35;8.60;;;4.20;;
69334;SDS011;56477;52.742;15.242;2023-06-10T12:52:03;5.55;;;4.55;;
69334;SDS011;56477;52.742;15.242;2023-06-10T12:54:29;6.72;;;4.35;;
69334;SDS011;56477;52.742;15.242;2023-06-10T12:56:56;10.83;;;4.23;;
69334;SDS011;56477;52.742;15.242;2023-06-10T12:59:22;10.13;;;4.27;;
69334;SDS011;56477;52.742;15.242;2023-06-10T13:01:50;5.93;;;4.88;;
69334;SDS011;56477;52.742;15.242;2023-06-10T13:04:17;7.28;;;4.57;;
69334;SDS011;56477;52.742;15.242;2023-06-10T13:06:44;7.57;;;4.97;;
69334;SDS011;56477;52.742;15.242;2023-06-10T13:09:10;5.45;;;4.60;;
69334;SDS011;56477;52.742;15.242;2023-06-10T13:11:36;8.27;;;5.10;;
69334;SDS011;56477;52.742;15.242;2023-06-10T13:14:02;13.93;;;5.07;;
69334;SDS011;56477;52.742;15.242;2023-06-10T13:16:33;8.65;;;4.38;;
69334;SDS011;56477;52.742;15.242;2023-06-10T13:18:58;5.97;;;4.32;;
69334;SDS011;56477;52.742;15.242;2023-06-10T13:21:26;7.05;;;4.00;;
69334;SDS011;56477;52.742;15.242;2023-06-10T13:23:52;6.65;;;3.97;;
69334;SDS011;56477;52.742;15.242;2023-06-10T13:26:18;7.00;;;3.80;;
69334;SDS011;56477;52.742;15.242;2023-06-10T13:28:44;5.30;;;3.90;;
69334;SDS011;56477;52.742;15.242;2023-06-10T13:31:10;6.70;;;4.15;;
69334;SDS011;56477;52.742;15.242;2023-06-10T13:33:36;8.02;;;4.63;;
69334;SDS011;56477;52.742;15.242;2023-06-10T13:36:03;7.07;;;4.50;;
69334;SDS011;56477;52.742;15.242;2023-06-10T13:38:30;7.13;;;4.15;;
69334;SDS011;56477;52.742;15.242;2023-06-10T13:40:56;10.53;;;4.10;;
69334;SDS011;56477;52.742;15.242;2023-06-10T13:43:23;7.47;;;4.57;;
69334;SDS011;56477;52.742;15.242;2023-06-10T13:45:49;8.27;;;4.47;;
69334;SDS011;56477;52.742;15.242;2023-06-10T13:48:15;7.28;;;4.10;;
69334;SDS011;56477;52.742;15.242;2023-06-10T13:50:41;6.22;;;4.00;;
69334;SDS011;56477;52.742;15.242;2023-06-10T13:53:11;9.10;;;4.60;;
69334;SDS011;56477;52.742;15.242;2023-06-10T13:55:37;5.68;;;4.07;;
69334;SDS011;56477;52.742;15.242;2023-06-10T13:58:03;6.67;;;3.67;;
69334;SDS011;56477;52.742;15.242;2023-06-10T14:00:29;6.00;;;3.78;;
69334;SDS011;56477;52.742;15.242;2023-06-10T14:02:55;7.90;;;3.95;;
69334;SDS011;56477;52.742;15.242;2023-06-10T14:05:22;7.80;;;4.05;;
69334;SDS011;56477;52.742;15.242;2023-06-10T14:07:48;8.55;;;4.38;;
69334;SDS011;56477;52.742;15.242;2023-06-10T14:10:14;5.10;;;3.90;;
69334;SDS011;56477;52.742;15.242;2023-06-10T14:12:39;7.05;;;3.97;;
69334;SDS011;56477;52.742;15.242;2023-06-10T14:15:06;5.30;;;3.63;;
69334;SDS011;56477;52.742;15.242;2023-06-10T14:17:32;10.15;;;4.38;;
69334;SDS011;56477;52.742;15.242;2023-06-10T14:19:58;6.90;;;4.25;;
69334;SDS011;56477;52.742;15.242;2023-06-10T14:22:24;7.37;;;4.20;;
69334;SDS011;56477;52.742;15.242;2023-06-10T14:24:50;6.22;;;3.92;;
69334;SDS011;56477;52.742;15.242;2023-06-10T14:27:16;7.43;;;4.28;;
69334;SDS011;56477;52.742;15.242;2023-06-10T14:29:42;7.60;;;4.18;;
69334;SDS011;56477;52.742;15.242;2023-06-10T14:32:08;7.17;;;4.07;;
69334;SDS011;56477;52.742;15.242;2023-06-10T14:34:34;7.22;;;4.22;;
69334;SDS011;56477;52.742;15.242;2023-06-10T14:37:00;8.63;;;4.22;;
69334;SDS011;56477;52.742;15.242;2023-06-10T14:39:28;7.78;;;4.45;;
69334;SDS011;56477;52.742;15.242;2023-06-10T14:41:54;7.83;;;4.60;;
69334;SDS011;56477;52.742;15.242;2023-06-10T14:44:20;6.53;;;4.10;;
69334;SDS011;56477;52.742;15.242;2023-06-10T14:46:46;7.03;;;4.20;;
69334;SDS011;56477;52.742;15.242;2023-06-10T14:49:13;7.38;;;3.97;;